Terminal Aerodrome Forecast
Issued by NWS Sterling, VA

Home | Current Version | Previous Version | Text Only | Print | Product List | Glossary On
Versions: 1 2 3 4 5 6 7 8 9 10 11 12 13 14 15 16 17 18 19 20 21 22 23 24
000
FTUS41 KLWX 070851 AAA
TAFBWI
TAF AMD
KBWI 070851Z 0709/0812 07004KT P6SM BKN140
     FM071800 13004KT P6SM BKN045
     FM072000 13005KT P6SM SCT045
     FM080000 15004KT P6SM SCT250
     FM080600 00000KT P6SM FEW250=

USA.gov is the U.S. government's official web portal to all federal, state and local government web resources and services.